sensor_id;sensor_type;location;lat;lon;timestamp;P1;durP1;ratioP1;P2;durP2;ratioP2
59042;SDS011;44826;51.596;5.624;2022-09-01T00:01:21;2.35;;;1.00;;
59042;SDS011;44826;51.596;5.624;2022-09-01T00:03:49;1.75;;;0.90;;
59042;SDS011;44826;51.596;5.624;2022-09-01T00:06:17;1.30;;;0.95;;
59042;SDS011;44826;51.596;5.624;2022-09-01T00:08:47;1.52;;;0.88;;
59042;SDS011;44826;51.596;5.624;2022-09-01T00:11:13;3.45;;;0.95;;
59042;SDS011;44826;51.596;5.624;2022-09-01T00:13:38;3.22;;;1.08;;
59042;SDS011;44826;51.596;5.624;2022-09-01T00:16:04;4.38;;;0.98;;
59042;SDS011;44826;51.596;5.624;2022-09-01T00:18:29;1.60;;;0.90;;
59042;SDS011;44826;51.596;5.624;2022-09-01T00:20:56;1.30;;;0.80;;
59042;SDS011;44826;51.596;5.624;2022-09-01T00:23:23;2.47;;;1.00;;
59042;SDS011;44826;51.596;5.624;2022-09-01T00:25:53;1.33;;;0.80;;
59042;SDS011;44826;51.596;5.624;2022-09-01T00:28:19;1.50;;;1.00;;
59042;SDS011;44826;51.596;5.624;2022-09-01T00:30:44;2.25;;;1.10;;
59042;SDS011;44826;51.596;5.624;2022-09-01T00:33:10;2.67;;;1.00;;
59042;SDS011;44826;51.596;5.624;2022-09-01T00:35:35;2.03;;;1.10;;
59042;SDS011;44826;51.596;5.624;2022-09-01T00:38:00;2.85;;;1.00;;
59042;SDS011;44826;51.596;5.624;2022-09-01T00:40:26;2.10;;;1.00;;
59042;SDS011;44826;51.596;5.624;2022-09-01T00:42:51;3.85;;;1.10;;
59042;SDS011;44826;51.596;5.624;2022-09-01T00:45:17;3.47;;;1.00;;
59042;SDS011;44826;51.596;5.624;2022-09-01T00:47:44;6.03;;;1.20;;
59042;SDS011;44826;51.596;5.624;2022-09-01T00:50:10;6.10;;;1.10;;
59042;SDS011;44826;51.596;5.624;2022-09-01T00:52:38;1.80;;;1.15;;
59042;SDS011;44826;51.596;5.624;2022-09-01T00:55:11;1.95;;;0.90;;
59042;SDS011;44826;51.596;5.624;2022-09-01T00:57:40;1.88;;;1.00;;
59042;SDS011;44826;51.596;5.624;2022-09-01T01:00:11;1.27;;;1.00;;
59042;SDS011;44826;51.596;5.624;2022-09-01T01:02:39;3.63;;;0.95;;
59042;SDS011;44826;51.596;5.624;2022-09-01T01:05:05;3.88;;;1.00;;
59042;SDS011;44826;51.596;5.624;2022-09-01T01:07:32;1.95;;;1.10;;
59042;SDS011;44826;51.596;5.624;2022-09-01T01:10:02;1.45;;;0.93;;
59042;SDS011;44826;51.596;5.624;2022-09-01T01:12:31;3.38;;;1.20;;
59042;SDS011;44826;51.596;5.624;2022-09-01T01:14:57;2.72;;;1.00;;
59042;SDS011;44826;51.596;5.624;2022-09-01T01:17:22;1.92;;;1.08;;
59042;SDS011;44826;51.596;5.624;2022-09-01T01:19:51;1.58;;;0.90;;
59042;SDS011;44826;51.596;5.624;2022-09-01T01:22:42;2.22;;;1.10;;
59042;SDS011;44826;51.596;5.624;2022-09-01T01:25:26;2.03;;;0.90;;
59042;SDS011;44826;51.596;5.624;2022-09-01T01:28:20;1.75;;;1.10;;
59042;SDS011;44826;51.596;5.624;2022-09-01T01:30:53;2.33;;;1.00;;
59042;SDS011;44826;51.596;5.624;2022-09-01T01:33:26;4.97;;;1.10;;
59042;SDS011;44826;51.596;5.624;2022-09-01T01:35:56;1.10;;;0.90;;
59042;SDS011;44826;51.596;5.624;2022-09-01T01:38:22;2.40;;;1.00;;
59042;SDS011;44826;51.596;5.624;2022-09-01T01:40:49;2.15;;;1.05;;
59042;SDS011;44826;51.596;5.624;2022-09-01T01:43:15;2.38;;;0.82;;
59042;SDS011;44826;51.596;5.624;2022-09-01T01:45:44;2.50;;;1.17;;
59042;SDS011;44826;51.596;5.624;2022-09-01T01:48:20;2.95;;;1.15;;
59042;SDS011;44826;51.596;5.624;2022-09-01T01:50:50;2.83;;;1.10;;
59042;SDS011;44826;51.596;5.624;2022-09-01T01:53:17;2.17;;;0.85;;
59042;SDS011;44826;51.596;5.624;2022-09-01T01:55:43;1.67;;;1.00;;
59042;SDS011;44826;51.596;5.624;2022-09-01T01:58:09;2.35;;;1.00;;
59042;SDS011;44826;51.596;5.624;2022-09-01T02:00:36;2.15;;;1.10;;
59042;SDS011;44826;51.596;5.624;2022-09-01T02:03:03;2.55;;;1.00;;
59042;SDS011;44826;51.596;5.624;2022-09-01T02:05:32;5.88;;;1.25;;
59042;SDS011;44826;51.596;5.624;2022-09-01T02:08:01;2.00;;;1.20;;
59042;SDS011;44826;51.596;5.624;2022-09-01T02:10:30;2.92;;;1.10;;
59042;SDS011;44826;51.596;5.624;2022-09-01T02:12:59;3.30;;;1.05;;
59042;SDS011;44826;51.596;5.624;2022-09-01T02:15:29;4.68;;;1.13;;
59042;SDS011;44826;51.596;5.624;2022-09-01T02:17:59;3.80;;;1.10;;
59042;SDS011;44826;51.596;5.624;2022-09-01T02:20:25;3.10;;;1.20;;
59042;SDS011;44826;51.596;5.624;2022-09-01T02:22:56;2.90;;;1.00;;
59042;SDS011;44826;51.596;5.624;2022-09-01T02:25:22;3.13;;;1.20;;
59042;SDS011;44826;51.596;5.624;2022-09-01T02:27:47;1.23;;;0.98;;
59042;SDS011;44826;51.596;5.624;2022-09-01T02:30:17;3.70;;;1.10;;
59042;SDS011;44826;51.596;5.624;2022-09-01T02:32:43;3.58;;;1.10;;
59042;SDS011;44826;51.596;5.624;2022-09-01T02:35:08;2.80;;;1.10;;
59042;SDS011;44826;51.596;5.624;2022-09-01T02:37:34;3.40;;;1.20;;
59042;SDS011;44826;51.596;5.624;2022-09-01T02:40:00;1.67;;;1.08;;
59042;SDS011;44826;51.596;5.624;2022-09-01T02:42:26;2.13;;;1.02;;
59042;SDS011;44826;51.596;5.624;2022-09-01T02:44:54;2.58;;;1.00;;
59042;SDS011;44826;51.596;5.624;2022-09-01T02:47:21;2.63;;;1.20;;
59042;SDS011;44826;51.596;5.624;2022-09-01T02:49:47;2.40;;;1.20;;
59042;SDS011;44826;51.596;5.624;2022-09-01T02:52:15;4.60;;;1.35;;
59042;SDS011;44826;51.596;5.624;2022-09-01T02:54:42;1.90;;;1.30;;
59042;SDS011;44826;51.596;5.624;2022-09-01T02:57:09;2.33;;;1.08;;
59042;SDS011;44826;51.596;5.624;2022-09-01T02:59:35;2.45;;;1.30;;
59042;SDS011;44826;51.596;5.624;2022-09-01T03:02:01;2.15;;;1.23;;
59042;SDS011;44826;51.596;5.624;2022-09-01T03:04:26;2.65;;;1.30;;
59042;SDS011;44826;51.596;5.624;2022-09-01T03:06:52;3.00;;;1.20;;
59042;SDS011;44826;51.596;5.624;2022-09-01T03:09:18;1.80;;;1.25;;
59042;SDS011;44826;51.596;5.624;2022-09-01T03:11:45;2.10;;;1.17;;
59042;SDS011;44826;51.596;5.624;2022-09-01T03:14:13;1.98;;;1.25;;
59042;SDS011;44826;51.596;5.624;2022-09-01T03:16:39;3.30;;;1.10;;
59042;SDS011;44826;51.596;5.624;2022-09-01T03:19:05;3.22;;;1.05;;
59042;SDS011;44826;51.596;5.624;2022-09-01T03:21:33;2.17;;;1.30;;
59042;SDS011;44826;51.596;5.624;2022-09-01T03:23:59;3.70;;;1.30;;
59042;SDS011;44826;51.596;5.624;2022-09-01T03:26:27;3.20;;;1.35;;
59042;SDS011;44826;51.596;5.624;2022-09-01T03:28:54;2.92;;;1.27;;
59042;SDS011;44826;51.596;5.624;2022-09-01T03:31:19;2.38;;;1.30;;
59042;SDS011;44826;51.596;5.624;2022-09-01T03:33:45;2.42;;;1.40;;
59042;SDS011;44826;51.596;5.624;2022-09-01T03:36:11;4.30;;;1.35;;
59042;SDS011;44826;51.596;5.624;2022-09-01T03:41:08;2.53;;;1.40;;
59042;SDS011;44826;51.596;5.624;2022-09-01T03:43:34;4.15;;;1.38;;
59042;SDS011;44826;51.596;5.624;2022-09-01T03:45:59;1.70;;;1.38;;
59042;SDS011;44826;51.596;5.624;2022-09-01T03:48:26;2.22;;;1.30;;
59042;SDS011;44826;51.596;5.624;2022-09-01T03:50:54;3.05;;;1.23;;
59042;SDS011;44826;51.596;5.624;2022-09-01T03:53:22;5.20;;;1.40;;
59042;SDS011;44826;51.596;5.624;2022-09-01T03:55:51;3.00;;;1.30;;
59042;SDS011;44826;51.596;5.624;2022-09-01T03:58:18;2.97;;;1.30;;
59042;SDS011;44826;51.596;5.624;2022-09-01T04:00:46;2.15;;;1.15;;
59042;SDS011;44826;51.596;5.624;2022-09-01T04:03:20;3.80;;;1.27;;
59042;SDS011;44826;51.596;5.624;2022-09-01T04:05:49;2.28;;;1.40;;
59042;SDS011;44826;51.596;5.624;2022-09-01T04:08:16;4.30;;;1.45;;
59042;SDS011;44826;51.596;5.624;2022-09-01T04:10:44;2.50;;;1.30;;
59042;SDS011;44826;51.596;5.624;2022-09-01T04:13:20;2.92;;;1.20;;
59042;SDS011;44826;51.596;5.624;2022-09-01T04:15:54;1.92;;;1.25;;
59042;SDS011;44826;51.596;5.624;2022-09-01T04:18:20;1.55;;;1.30;;
59042;SDS011;44826;51.596;5.624;2022-09-01T04:20:47;3.85;;;1.50;;
59042;SDS011;44826;51.596;5.624;2022-09-01T04:23:18;2.60;;;1.25;;
59042;SDS011;44826;51.596;5.624;2022-09-01T04:26:04;3.17;;;1.23;;
59042;SDS011;44826;51.596;5.624;2022-09-01T04:28:35;4.43;;;1.30;;
59042;SDS011;44826;51.596;5.624;2022-09-01T04:31:03;3.35;;;1.40;;
59042;SDS011;44826;51.596;5.624;2022-09-01T04:33:34;4.05;;;1.20;;
59042;SDS011;44826;51.596;5.624;2022-09-01T04:36:03;3.72;;;1.40;;
59042;SDS011;44826;51.596;5.624;2022-09-01T04:38:29;3.85;;;1.25;;
59042;SDS011;44826;51.596;5.624;2022-09-01T04:40:54;3.47;;;1.40;;
59042;SDS011;44826;51.596;5.624;2022-09-01T04:43:21;2.42;;;1.50;;
59042;SDS011;44826;51.596;5.624;2022-09-01T04:45:48;3.80;;;1.50;;
59042;SDS011;44826;51.596;5.624;2022-09-01T04:48:15;3.28;;;1.40;;
59042;SDS011;44826;51.596;5.624;2022-09-01T04:50:43;1.73;;;1.20;;
59042;SDS011;44826;51.596;5.624;2022-09-01T04:53:09;2.42;;;1.17;;
59042;SDS011;44826;51.596;5.624;2022-09-01T04:55:37;2.00;;;1.30;;
59042;SDS011;44826;51.596;5.624;2022-09-01T04:58:05;2.45;;;1.33;;
59042;SDS011;44826;51.596;5.624;2022-09-01T05:00:30;2.92;;;1.25;;
59042;SDS011;44826;51.596;5.624;2022-09-01T05:03:01;5.35;;;1.40;;
59042;SDS011;44826;51.596;5.624;2022-09-01T05:05:29;3.90;;;1.30;;
59042;SDS011;44826;51.596;5.624;2022-09-01T05:08:03;2.92;;;1.20;;
59042;SDS011;44826;51.596;5.624;2022-09-01T05:10:28;2.22;;;1.40;;
59042;SDS011;44826;51.596;5.624;2022-09-01T05:12:54;3.40;;;1.40;;
59042;SDS011;44826;51.596;5.624;2022-09-01T05:15:21;3.00;;;1.30;;
59042;SDS011;44826;51.596;5.624;2022-09-01T05:17:47;1.80;;;1.20;;
59042;SDS011;44826;51.596;5.624;2022-09-01T05:20:13;2.53;;;1.33;;
59042;SDS011;44826;51.596;5.624;2022-09-01T05:22:38;3.92;;;1.38;;
59042;SDS011;44826;51.596;5.624;2022-09-01T05:25:05;4.53;;;1.50;;
59042;SDS011;44826;51.596;5.624;2022-09-01T05:27:38;3.28;;;1.13;;
59042;SDS011;44826;51.596;5.624;2022-09-01T05:30:06;1.90;;;1.20;;
59042;SDS011;44826;51.596;5.624;2022-09-01T05:32:33;2.60;;;1.70;;
59042;SDS011;44826;51.596;5.624;2022-09-01T05:35:01;4.07;;;1.40;;
59042;SDS011;44826;51.596;5.624;2022-09-01T05:37:27;3.40;;;1.30;;
59042;SDS011;44826;51.596;5.624;2022-09-01T05:39:54;2.40;;;1.45;;
59042;SDS011;44826;51.596;5.624;2022-09-01T05:42:20;2.72;;;1.50;;
59042;SDS011;44826;51.596;5.624;2022-09-01T05:44:45;2.47;;;1.40;;
59042;SDS011;44826;51.596;5.624;2022-09-01T05:47:11;2.35;;;1.17;;
59042;SDS011;44826;51.596;5.624;2022-09-01T05:49:37;4.68;;;1.40;;
59042;SDS011;44826;51.596;5.624;2022-09-01T05:52:03;1.83;;;1.10;;
59042;SDS011;44826;51.596;5.624;2022-09-01T05:54:29;4.63;;;1.30;;
59042;SDS011;44826;51.596;5.624;2022-09-01T05:56:56;2.45;;;1.20;;
59042;SDS011;44826;51.596;5.624;2022-09-01T05:59:22;2.10;;;1.30;;
59042;SDS011;44826;51.596;5.624;2022-09-01T06:01:49;2.33;;;1.35;;
59042;SDS011;44826;51.596;5.624;2022-09-01T06:04:14;2.38;;;1.20;;
59042;SDS011;44826;51.596;5.624;2022-09-01T06:06:41;2.05;;;1.20;;
59042;SDS011;44826;51.596;5.624;2022-09-01T06:09:10;1.88;;;1.30;;
59042;SDS011;44826;51.596;5.624;2022-09-01T06:11:37;2.00;;;1.08;;
59042;SDS011;44826;51.596;5.624;2022-09-01T06:14:05;2.22;;;1.30;;
59042;SDS011;44826;51.596;5.624;2022-09-01T06:16:35;4.20;;;1.20;;
59042;SDS011;44826;51.596;5.624;2022-09-01T06:19:01;2.42;;;1.30;;
59042;SDS011;44826;51.596;5.624;2022-09-01T06:21:27;2.67;;;1.30;;
59042;SDS011;44826;51.596;5.624;2022-09-01T06:23:53;3.88;;;1.35;;
59042;SDS011;44826;51.596;5.624;2022-09-01T06:26:25;6.20;;;1.23;;
59042;SDS011;44826;51.596;5.624;2022-09-01T06:28:55;1.98;;;1.25;;
59042;SDS011;44826;51.596;5.624;2022-09-01T06:31:23;2.90;;;1.30;;
59042;SDS011;44826;51.596;5.624;2022-09-01T06:33:52;2.72;;;1.40;;
59042;SDS011;44826;51.596;5.624;2022-09-01T06:36:22;5.00;;;1.50;;
59042;SDS011;44826;51.596;5.624;2022-09-01T06:38:51;2.80;;;1.55;;
59042;SDS011;44826;51.596;5.624;2022-09-01T06:41:18;2.78;;;1.55;;
59042;SDS011;44826;51.596;5.624;2022-09-01T06:43:46;3.05;;;1.30;;
59042;SDS011;44826;51.596;5.624;2022-09-01T06:46:13;4.05;;;1.60;;
59042;SDS011;44826;51.596;5.624;2022-09-01T06:48:40;2.70;;;1.45;;
59042;SDS011;44826;51.596;5.624;2022-09-01T06:51:10;4.93;;;1.70;;
59042;SDS011;44826;51.596;5.624;2022-09-01T06:53:38;2.05;;;1.20;;
59042;SDS011;44826;51.596;5.624;2022-09-01T06:56:04;4.53;;;1.52;;
59042;SDS011;44826;51.596;5.624;2022-09-01T06:58:29;5.85;;;1.80;;
59042;SDS011;44826;51.596;5.624;2022-09-01T07:00:55;2.45;;;1.40;;
59042;SDS011;44826;51.596;5.624;2022-09-01T07:03:21;3.30;;;1.40;;
59042;SDS011;44826;51.596;5.624;2022-09-01T07:05:48;2.10;;;1.52;;
59042;SDS011;44826;51.596;5.624;2022-09-01T07:08:16;2.47;;;1.48;;
59042;SDS011;44826;51.596;5.624;2022-09-01T07:10:45;2.83;;;1.50;;
59042;SDS011;44826;51.596;5.624;2022-09-01T07:13:13;3.35;;;1.70;;
59042;SDS011;44826;51.596;5.624;2022-09-01T07:15:44;3.38;;;1.65;;
59042;SDS011;44826;51.596;5.624;2022-09-01T07:18:14;3.53;;;1.70;;
59042;SDS011;44826;51.596;5.624;2022-09-01T07:20:41;4.70;;;1.50;;
59042;SDS011;44826;51.596;5.624;2022-09-01T07:23:08;4.72;;;1.63;;
59042;SDS011;44826;51.596;5.624;2022-09-01T07:25:38;2.72;;;1.38;;
59042;SDS011;44826;51.596;5.624;2022-09-01T07:28:06;3.08;;;1.40;;
59042;SDS011;44826;51.596;5.624;2022-09-01T07:30:32;2.17;;;1.50;;
59042;SDS011;44826;51.596;5.624;2022-09-01T07:33:04;3.25;;;1.60;;
59042;SDS011;44826;51.596;5.624;2022-09-01T07:35:32;5.65;;;1.90;;
59042;SDS011;44826;51.596;5.624;2022-09-01T07:38:02;3.75;;;1.40;;
59042;SDS011;44826;51.596;5.624;2022-09-01T07:40:28;3.10;;;1.38;;
59042;SDS011;44826;51.596;5.624;2022-09-01T07:42:53;3.78;;;1.40;;
59042;SDS011;44826;51.596;5.624;2022-09-01T07:45:21;1.33;;;1.10;;
59042;SDS011;44826;51.596;5.624;2022-09-01T07:47:47;2.28;;;1.20;;
59042;SDS011;44826;51.596;5.624;2022-09-01T07:50:13;2.35;;;1.33;;
59042;SDS011;44826;51.596;5.624;2022-09-01T07:52:39;1.70;;;1.30;;
59042;SDS011;44826;51.596;5.624;2022-09-01T07:55:13;4.32;;;1.65;;
59042;SDS011;44826;51.596;5.624;2022-09-01T07:57:41;4.70;;;1.48;;
59042;SDS011;44826;51.596;5.624;2022-09-01T08:00:10;2.38;;;1.42;;
59042;SDS011;44826;51.596;5.624;2022-09-01T08:02:39;4.05;;;1.33;;
59042;SDS011;44826;51.596;5.624;2022-09-01T08:05:08;3.38;;;1.35;;
59042;SDS011;44826;51.596;5.624;2022-09-01T08:07:35;2.95;;;1.20;;
59042;SDS011;44826;51.596;5.624;2022-09-01T08:10:01;3.88;;;1.13;;
59042;SDS011;44826;51.596;5.624;2022-09-01T08:12:28;4.72;;;1.30;;
59042;SDS011;44826;51.596;5.624;2022-09-01T08:14:53;2.40;;;1.20;;
59042;SDS011;44826;51.596;5.624;2022-09-01T08:17:18;7.15;;;1.30;;
59042;SDS011;44826;51.596;5.624;2022-09-01T08:19:45;1.80;;;1.10;;
59042;SDS011;44826;51.596;5.624;2022-09-01T08:22:11;2.25;;;1.10;;
59042;SDS011;44826;51.596;5.624;2022-09-01T08:24:36;2.10;;;1.25;;
59042;SDS011;44826;51.596;5.624;2022-09-01T08:27:02;1.75;;;1.20;;
59042;SDS011;44826;51.596;5.624;2022-09-01T08:29:28;3.80;;;1.25;;
59042;SDS011;44826;51.596;5.624;2022-09-01T08:31:53;3.00;;;1.15;;
59042;SDS011;44826;51.596;5.624;2022-09-01T08:34:19;1.77;;;1.10;;
59042;SDS011;44826;51.596;5.624;2022-09-01T08:36:44;2.75;;;1.23;;
59042;SDS011;44826;51.596;5.624;2022-09-01T08:39:10;3.60;;;1.17;;
59042;SDS011;44826;51.596;5.624;2022-09-01T08:41:41;4.35;;;1.20;;
59042;SDS011;44826;51.596;5.624;2022-09-01T08:44:21;2.13;;;1.20;;
59042;SDS011;44826;51.596;5.624;2022-09-01T08:46:51;1.55;;;1.08;;
59042;SDS011;44826;51.596;5.624;2022-09-01T08:49:22;1.38;;;1.00;;
59042;SDS011;44826;51.596;5.624;2022-09-01T08:51:50;2.58;;;1.17;;
59042;SDS011;44826;51.596;5.624;2022-09-01T08:57:00;1.90;;;1.10;;
59042;SDS011;44826;51.596;5.624;2022-09-01T08:59:29;3.35;;;1.10;;
59042;SDS011;44826;51.596;5.624;2022-09-01T09:01:59;4.03;;;1.10;;
59042;SDS011;44826;51.596;5.624;2022-09-01T09:07:21;4.97;;;1.02;;
59042;SDS011;44826;51.596;5.624;2022-09-01T09:10:03;3.50;;;1.10;;
59042;SDS011;44826;51.596;5.624;2022-09-01T09:15:27;2.00;;;1.00;;
59042;SDS011;44826;51.596;5.624;2022-09-01T09:17:58;2.15;;;1.10;;
59042;SDS011;44826;51.596;5.624;2022-09-01T09:20:33;1.75;;;1.10;;
59042;SDS011;44826;51.596;5.624;2022-09-01T09:23:01;2.80;;;1.00;;
59042;SDS011;44826;51.596;5.624;2022-09-01T09:25:36;4.03;;;1.10;;
59042;SDS011;44826;51.596;5.624;2022-09-01T09:28:01;2.25;;;1.00;;
59042;SDS011;44826;51.596;5.624;2022-09-01T09:30:28;2.67;;;1.05;;
59042;SDS011;44826;51.596;5.624;2022-09-01T09:41:06;3.35;;;1.00;;
59042;SDS011;44826;51.596;5.624;2022-09-01T09:43:42;1.52;;;0.95;;
59042;SDS011;44826;51.596;5.624;2022-09-01T09:46:19;1.67;;;0.88;;
59042;SDS011;44826;51.596;5.624;2022-09-01T09:48:45;2.38;;;0.90;;
59042;SDS011;44826;51.596;5.624;2022-09-01T09:51:20;2.92;;;1.00;;
59042;SDS011;44826;51.596;5.624;2022-09-01T09:53:46;2.58;;;0.82;;
59042;SDS011;44826;51.596;5.624;2022-09-01T09:56:16;1.50;;;0.90;;
59042;SDS011;44826;51.596;5.624;2022-09-01T09:58:44;1.65;;;0.80;;
59042;SDS011;44826;51.596;5.624;2022-09-01T10:03:53;2.60;;;0.77;;
59042;SDS011;44826;51.596;5.624;2022-09-01T10:08:55;2.20;;;0.80;;
59042;SDS011;44826;51.596;5.624;2022-09-01T10:11:26;3.22;;;0.68;;
59042;SDS011;44826;51.596;5.624;2022-09-01T10:13:55;1.30;;;0.75;;
59042;SDS011;44826;51.596;5.624;2022-09-01T10:16:24;1.23;;;0.82;;
59042;SDS011;44826;51.596;5.624;2022-09-01T10:18:54;6.80;;;0.90;;
59042;SDS011;44826;51.596;5.624;2022-09-01T10:21:26;1.02;;;0.80;;
59042;SDS011;44826;51.596;5.624;2022-09-01T10:23:57;4.55;;;0.85;;
59042;SDS011;44826;51.596;5.624;2022-09-01T10:26:25;1.85;;;0.80;;
59042;SDS011;44826;51.596;5.624;2022-09-01T10:31:30;1.00;;;0.70;;
59042;SDS011;44826;51.596;5.624;2022-09-01T10:33:56;2.20;;;0.70;;
59042;SDS011;44826;51.596;5.624;2022-09-01T10:36:23;1.20;;;0.82;;
59042;SDS011;44826;51.596;5.624;2022-09-01T10:38:49;1.80;;;0.80;;
59042;SDS011;44826;51.596;5.624;2022-09-01T10:47:28;1.35;;;0.70;;
59042;SDS011;44826;51.596;5.624;2022-09-01T10:50:05;3.00;;;1.00;;
59042;SDS011;44826;51.596;5.624;2022-09-01T10:55:14;1.05;;;0.90;;
59042;SDS011;44826;51.596;5.624;2022-09-01T11:16:23;1.25;;;0.70;;
59042;SDS011;44826;51.596;5.624;2022-09-01T11:18:49;2.85;;;0.73;;
59042;SDS011;44826;51.596;5.624;2022-09-01T11:21:22;1.15;;;0.75;;
59042;SDS011;44826;51.596;5.624;2022-09-01T11:24:17;1.60;;;0.80;;
59042;SDS011;44826;51.596;5.624;2022-09-01T11:27:07;1.98;;;0.50;;
59042;SDS011;44826;51.596;5.624;2022-09-01T11:32:15;0.82;;;0.50;;
59042;SDS011;44826;51.596;5.624;2022-09-01T11:34:41;1.58;;;0.70;;
59042;SDS011;44826;51.596;5.624;2022-09-01T11:37:12;1.52;;;0.70;;
59042;SDS011;44826;51.596;5.624;2022-09-01T11:39:59;1.25;;;0.55;;
59042;SDS011;44826;51.596;5.624;2022-09-01T11:42:27;1.52;;;0.50;;
59042;SDS011;44826;51.596;5.624;2022-09-01T11:45:17;0.80;;;0.50;;
59042;SDS011;44826;51.596;5.624;2022-09-01T11:47:46;1.92;;;0.60;;
59042;SDS011;44826;51.596;5.624;2022-09-01T11:50:27;1.67;;;0.60;;
59042;SDS011;44826;51.596;5.624;2022-09-01T11:52:59;1.83;;;0.70;;
59042;SDS011;44826;51.596;5.624;2022-09-01T11:55:31;3.47;;;0.70;;
59042;SDS011;44826;51.596;5.624;2022-09-01T11:58:00;2.47;;;0.60;;
59042;SDS011;44826;51.596;5.624;2022-09-01T12:00:27;3.70;;;0.60;;
59042;SDS011;44826;51.596;5.624;2022-09-01T12:02:55;0.65;;;0.57;;
59042;SDS011;44826;51.596;5.624;2022-09-01T12:05:29;0.50;;;0.50;;
59042;SDS011;44826;51.596;5.624;2022-09-01T12:07:57;1.98;;;0.43;;
59042;SDS011;44826;51.596;5.624;2022-09-01T12:10:36;1.70;;;0.63;;
59042;SDS011;44826;51.596;5.624;2022-09-01T12:13:06;1.30;;;0.52;;
59042;SDS011;44826;51.596;5.624;2022-09-01T12:15:33;0.93;;;0.60;;
59042;SDS011;44826;51.596;5.624;2022-09-01T12:20:49;1.10;;;0.50;;
59042;SDS011;44826;51.596;5.624;2022-09-01T12:23:23;0.88;;;0.50;;
59042;SDS011;44826;51.596;5.624;2022-09-01T12:25:53;3.08;;;0.65;;
59042;SDS011;44826;51.596;5.624;2022-09-01T12:28:20;0.82;;;0.50;;
59042;SDS011;44826;51.596;5.624;2022-09-01T12:30:50;1.02;;;0.50;;
59042;SDS011;44826;51.596;5.624;2022-09-01T12:33:17;0.95;;;0.50;;
59042;SDS011;44826;51.596;5.624;2022-09-01T12:35:43;1.23;;;0.60;;
59042;SDS011;44826;51.596;5.624;2022-09-01T12:40:44;1.42;;;0.60;;
59042;SDS011;44826;51.596;5.624;2022-09-01T12:43:11;0.85;;;0.50;;
59042;SDS011;44826;51.596;5.624;2022-09-01T12:45:52;3.70;;;0.57;;
59042;SDS011;44826;51.596;5.624;2022-09-01T12:48:27;2.45;;;0.68;;
59042;SDS011;44826;51.596;5.624;2022-09-01T12:50:54;0.45;;;0.43;;
59042;SDS011;44826;51.596;5.624;2022-09-01T12:53:22;1.02;;;0.60;;
59042;SDS011;44826;51.596;5.624;2022-09-01T12:55:54;0.95;;;0.60;;
59042;SDS011;44826;51.596;5.624;2022-09-01T12:58:24;1.15;;;0.60;;
59042;SDS011;44826;51.596;5.624;2022-09-01T13:00:58;2.20;;;0.70;;
59042;SDS011;44826;51.596;5.624;2022-09-01T13:03:25;1.33;;;0.60;;
59042;SDS011;44826;51.596;5.624;2022-09-01T13:05:53;1.58;;;0.70;;
59042;SDS011;44826;51.596;5.624;2022-09-01T13:08:21;3.20;;;0.50;;
59042;SDS011;44826;51.596;5.624;2022-09-01T13:10:53;2.55;;;0.52;;
59042;SDS011;44826;51.596;5.624;2022-09-01T13:13:25;1.00;;;0.60;;
59042;SDS011;44826;51.596;5.624;2022-09-01T13:15:55;3.08;;;0.70;;
59042;SDS011;44826;51.596;5.624;2022-09-01T13:18:25;2.67;;;0.57;;
59042;SDS011;44826;51.596;5.624;2022-09-01T13:20:51;1.92;;;0.50;;
59042;SDS011;44826;51.596;5.624;2022-09-01T13:23:18;0.98;;;0.60;;
59042;SDS011;44826;51.596;5.624;2022-09-01T13:25:44;2.03;;;0.60;;
59042;SDS011;44826;51.596;5.624;2022-09-01T13:28:10;1.80;;;0.80;;
59042;SDS011;44826;51.596;5.624;2022-09-01T13:30:36;1.55;;;0.70;;
59042;SDS011;44826;51.596;5.624;2022-09-01T13:33:02;1.13;;;0.60;;
59042;SDS011;44826;51.596;5.624;2022-09-01T13:35:28;1.30;;;0.50;;
59042;SDS011;44826;51.596;5.624;2022-09-01T13:37:53;0.88;;;0.70;;
59042;SDS011;44826;51.596;5.624;2022-09-01T13:40:19;1.98;;;0.50;;
59042;SDS011;44826;51.596;5.624;2022-09-01T13:42:47;0.80;;;0.60;;
59042;SDS011;44826;51.596;5.624;2022-09-01T13:45:14;1.02;;;0.60;;
59042;SDS011;44826;51.596;5.624;2022-09-01T13:47:42;1.55;;;0.70;;
59042;SDS011;44826;51.596;5.624;2022-09-01T13:50:09;1.45;;;0.70;;
59042;SDS011;44826;51.596;5.624;2022-09-01T13:52:38;1.15;;;0.60;;
59042;SDS011;44826;51.596;5.624;2022-09-01T13:55:05;2.78;;;0.70;;
59042;SDS011;44826;51.596;5.624;2022-09-01T13:57:32;1.02;;;0.60;;
59042;SDS011;44826;51.596;5.624;2022-09-01T13:59:58;2.60;;;0.80;;
59042;SDS011;44826;51.596;5.624;2022-09-01T14:02:23;2.70;;;0.70;;
59042;SDS011;44826;51.596;5.624;2022-09-01T14:04:50;1.80;;;0.60;;
59042;SDS011;44826;51.596;5.624;2022-09-01T14:07:15;0.98;;;0.68;;
59042;SDS011;44826;51.596;5.624;2022-09-01T14:09:42;1.00;;;0.60;;
59042;SDS011;44826;51.596;5.624;2022-09-01T14:12:11;1.88;;;0.70;;
59042;SDS011;44826;51.596;5.624;2022-09-01T14:14:36;1.85;;;0.50;;
59042;SDS011;44826;51.596;5.624;2022-09-01T14:17:02;1.25;;;0.63;;
59042;SDS011;44826;51.596;5.624;2022-09-01T14:19:27;0.82;;;0.60;;
59042;SDS011;44826;51.596;5.624;2022-09-01T14:21:53;3.58;;;0.70;;
59042;SDS011;44826;51.596;5.624;2022-09-01T14:24:18;1.88;;;0.80;;
59042;SDS011;44826;51.596;5.624;2022-09-01T14:26:45;1.88;;;0.80;;
59042;SDS011;44826;51.596;5.624;2022-09-01T14:29:11;1.73;;;0.70;;
59042;SDS011;44826;51.596;5.624;2022-09-01T14:31:36;1.10;;;0.80;;
59042;SDS011;44826;51.596;5.624;2022-09-01T14:34:01;3.05;;;0.77;;
59042;SDS011;44826;51.596;5.624;2022-09-01T14:36:28;1.23;;;0.70;;
59042;SDS011;44826;51.596;5.624;2022-09-01T14:38:53;2.92;;;0.80;;
59042;SDS011;44826;51.596;5.624;2022-09-01T14:41:19;2.47;;;0.70;;
59042;SDS011;44826;51.596;5.624;2022-09-01T14:43:50;1.90;;;0.75;;
59042;SDS011;44826;51.596;5.624;2022-09-01T14:46:16;2.03;;;0.80;;
59042;SDS011;44826;51.596;5.624;2022-09-01T14:48:43;2.10;;;0.80;;
59042;SDS011;44826;51.596;5.624;2022-09-01T14:51:16;1.95;;;0.88;;
59042;SDS011;44826;51.596;5.624;2022-09-01T14:53:44;1.70;;;0.70;;
59042;SDS011;44826;51.596;5.624;2022-09-01T14:56:09;1.60;;;0.80;;
59042;SDS011;44826;51.596;5.624;2022-09-01T14:58:34;1.98;;;0.65;;
59042;SDS011;44826;51.596;5.624;2022-09-01T15:01:00;1.80;;;0.70;;
59042;SDS011;44826;51.596;5.624;2022-09-01T15:03:26;1.45;;;0.77;;
59042;SDS011;44826;51.596;5.624;2022-09-01T15:05:52;1.17;;;0.68;;
59042;SDS011;44826;51.596;5.624;2022-09-01T15:08:18;3.38;;;0.90;;
59042;SDS011;44826;51.596;5.624;2022-09-01T15:10:44;2.33;;;0.88;;
59042;SDS011;44826;51.596;5.624;2022-09-01T15:13:09;3.08;;;0.90;;
59042;SDS011;44826;51.596;5.624;2022-09-01T15:15:35;1.33;;;0.70;;
59042;SDS011;44826;51.596;5.624;2022-09-01T15:18:01;2.17;;;1.02;;
59042;SDS011;44826;51.596;5.624;2022-09-01T15:20:28;1.73;;;0.90;;
59042;SDS011;44826;51.596;5.624;2022-09-01T15:23:17;1.52;;;1.00;;
59042;SDS011;44826;51.596;5.624;2022-09-01T15:25:49;1.55;;;0.70;;
59042;SDS011;44826;51.596;5.624;2022-09-01T15:28:16;2.10;;;0.90;;
59042;SDS011;44826;51.596;5.624;2022-09-01T15:30:42;3.47;;;0.80;;
59042;SDS011;44826;51.596;5.624;2022-09-01T15:33:09;2.17;;;0.88;;
59042;SDS011;44826;51.596;5.624;2022-09-01T15:35:35;1.50;;;0.70;;
59042;SDS011;44826;51.596;5.624;2022-09-01T15:38:00;1.42;;;0.75;;
59042;SDS011;44826;51.596;5.624;2022-09-01T15:40:26;1.40;;;0.70;;
59042;SDS011;44826;51.596;5.624;2022-09-01T15:42:52;2.88;;;1.00;;
59042;SDS011;44826;51.596;5.624;2022-09-01T15:45:19;2.13;;;0.95;;
59042;SDS011;44826;51.596;5.624;2022-09-01T15:47:46;1.80;;;0.90;;
59042;SDS011;44826;51.596;5.624;2022-09-01T15:50:16;4.85;;;1.88;;
59042;SDS011;44826;51.596;5.624;2022-09-01T15:52:51;7.95;;;2.85;;
59042;SDS011;44826;51.596;5.624;2022-09-01T15:55:26;4.68;;;1.65;;
59042;SDS011;44826;51.596;5.624;2022-09-01T15:58:01;5.00;;;1.60;;